Time;durP1;ratioP1;P1;durP2;ratioP2;P2;SDS_P1;SDS_P2;PMS_P1;PMS_P2;Temp;Humidity;BMP_temperature;BMP_pressure;BME280_temperature;BME280_humidity;BME280_pressure;Samples;Min_cycle;Max_cycle;Signal;HPM_P1;HPM_P2
2023/07/13 00:01:07;;;;;;;2.03;0.90;;;17.60;99.90;;;;;;5044128;28;20466;-80
2023/07/13 00:03:34;;;;;;;1.70;0.90;;;17.70;99.90;;;;;;5044760;28;20448;-82
2023/07/13 00:06:03;;;;;;;2.30;0.80;;;17.90;99.90;;;;;;5044166;28;20461;-79
2023/07/13 00:08:32;;;;;;;2.27;1.00;;;18.00;99.90;;;;;;5035016;28;20464;-79
2023/07/13 00:11:00;;;;;;;0.93;0.70;;;18.00;99.90;;;;;;5042252;28;20443;-80
2023/07/13 00:13:27;;;;;;;2.90;1.30;;;18.10;99.90;;;;;;5042245;28;20500;-80
2023/07/13 00:15:54;;;;;;;7.80;1.27;;;18.10;99.90;;;;;;5041513;28;20556;-79
2023/07/13 00:18:21;;;;;;;1.87;1.20;;;18.10;99.90;;;;;;5040288;28;20831;-80
2023/07/13 00:20:48;;;;;;;1.00;0.90;;;18.10;99.90;;;;;;5038599;28;21144;-80
2023/07/13 00:23:18;;;;;;;3.17;1.23;;;18.00;99.90;;;;;;5043611;28;20505;-79
2023/07/13 00:25:46;;;;;;;4.40;1.30;;;18.00;99.90;;;;;;5043122;28;20535;-80
2023/07/13 00:28:13;;;;;;;1.93;1.00;;;18.10;99.90;;;;;;5041179;28;20480;-80
2023/07/13 00:30:39;;;;;;;2.70;1.33;;;18.00;99.90;;;;;;5043096;28;20477;-80
2023/07/13 00:33:07;;;;;;;1.87;1.00;;;17.90;99.90;;;;;;5040718;28;20457;-79
2023/07/13 00:35:35;;;;;;;1.73;1.33;;;18.00;99.90;;;;;;5044986;28;20448;-79
2023/07/13 00:38:02;;;;;;;1.50;1.03;;;17.90;99.90;;;;;;5034844;28;20939;-80
2023/07/13 00:40:31;;;;;;;1.30;0.90;;;17.80;99.90;;;;;;5041637;28;20444;-79
2023/07/13 00:42:59;;;;;;;1.43;1.00;;;17.90;99.90;;;;;;5039998;27;21008;-80
2023/07/13 00:46:03;;;;;;;4.47;1.20;;;17.70;99.90;;;;;;5039440;28;20465;-83
2023/07/13 00:48:34;;;;;;;2.93;1.23;;;17.80;99.90;;;;;;5041868;28;20445;-84
2023/07/13 00:51:02;;;;;;;1.40;1.30;;;17.80;99.90;;;;;;5042081;28;20501;-82
2023/07/13 00:53:31;;;;;;;1.27;0.87;;;17.90;99.90;;;;;;5041338;28;21003;-81
2023/07/13 00:56:01;;;;;;;0.70;0.70;;;17.90;99.90;;;;;;5041813;28;20475;-82
2023/07/13 00:58:29;;;;;;;1.53;1.00;;;17.90;99.90;;;;;;5039375;28;20513;-83
2023/07/13 01:00:56;;;;;;;1.13;0.80;;;17.80;99.90;;;;;;5041495;27;20467;-81
2023/07/13 01:03:23;;;;;;;1.97;1.37;;;17.90;99.90;;;;;;5042727;28;21101;-80
2023/07/13 01:05:51;;;;;;;1.20;0.90;;;17.90;99.90;;;;;;5044098;28;20456;-80
2023/07/13 01:08:18;;;;;;;1.27;1.00;;;18.00;99.90;;;;;;5045752;27;20456;-81
2023/07/13 01:10:53;;;;;;;0.87;0.80;;;18.10;99.90;;;;;;5043384;28;20513;-80
2023/07/13 01:13:21;;;;;;;4.43;2.37;;;18.10;99.90;;;;;;5039491;28;20488;-80
2023/07/13 01:15:51;;;;;;;2.60;0.90;;;18.00;99.90;;;;;;5040257;27;20481;-82
2023/07/13 01:18:22;;;;;;;1.23;1.10;;;18.00;99.90;;;;;;5044645;28;20499;-80
2023/07/13 01:20:54;;;;;;;1.53;0.93;;;18.00;99.90;;;;;;5042374;28;20994;-79
2023/07/13 01:23:21;;;;;;;1.40;0.90;;;17.90;99.90;;;;;;5043453;28;20868;-79
2023/07/13 01:25:49;;;;;;;1.03;0.90;;;17.90;99.90;;;;;;5043068;28;20493;-79
2023/07/13 01:28:16;;;;;;;1.27;0.93;;;17.80;99.90;;;;;;5040685;28;20494;-82
2023/07/13 01:30:45;;;;;;;1.67;0.90;;;17.80;99.90;;;;;;5043308;28;21035;-82
2023/07/13 01:33:13;;;;;;;2.77;0.90;;;17.70;99.90;;;;;;5039331;28;20824;-79
2023/07/13 01:35:41;;;;;;;1.53;1.10;;;17.70;99.90;;;;;;5042929;28;20537;-80
2023/07/13 01:38:10;;;;;;;1.30;1.20;;;17.80;99.90;;;;;;5041476;28;20584;-80
2023/07/13 01:40:38;;;;;;;0.93;0.70;;;17.70;99.90;;;;;;5045781;27;22274;-80
2023/07/13 01:43:05;;;;;;;1.20;0.80;;;17.80;99.90;;;;;;5041138;28;20484;-83
2023/07/13 01:45:33;;;;;;;2.10;1.00;;;17.70;99.90;;;;;;5040642;28;21040;-81
2023/07/13 01:48:00;;;;;;;1.90;0.70;;;17.60;99.90;;;;;;5042300;28;20530;-80
2023/07/13 01:50:28;;;;;;;0.80;0.70;;;17.50;99.90;;;;;;5042908;28;21081;-82
2023/07/13 01:52:55;;;;;;;1.00;0.70;;;17.50;99.90;;;;;;5042841;28;20446;-79
2023/07/13 01:55:23;;;;;;;0.80;0.80;;;17.50;99.90;;;;;;5039844;28;20454;-79
2023/07/13 01:57:51;;;;;;;1.00;0.77;;;17.50;99.90;;;;;;5040455;28;20482;-81
2023/07/13 02:00:19;;;;;;;2.10;0.80;;;17.60;99.90;;;;;;5040072;28;21010;-80
2023/07/13 02:02:46;;;;;;;0.80;0.80;;;17.60;99.90;;;;;;5037192;28;20531;-79
2023/07/13 02:05:13;;;;;;;1.00;0.80;;;17.60;99.90;;;;;;5041132;28;21039;-80
2023/07/13 02:07:41;;;;;;;3.00;0.53;;;17.50;99.90;;;;;;5043766;28;20548;-84
2023/07/13 02:10:09;;;;;;;1.53;1.07;;;17.50;99.90;;;;;;5041878;28;21254;-81
2023/07/13 02:12:37;;;;;;;2.00;0.70;;;17.50;99.90;;;;;;5042741;28;20998;-80
2023/07/13 02:15:05;;;;;;;1.33;0.80;;;17.40;99.90;;;;;;5044009;28;20438;-81
2023/07/13 02:17:33;;;;;;;1.27;0.50;;;17.40;99.90;;;;;;5040406;28;20496;-80
2023/07/13 02:19:59;;;;;;;2.83;0.90;;;17.40;99.90;;;;;;5040694;28;20467;-81
2023/07/13 02:22:27;;;;;;;1.50;0.80;;;17.40;99.90;;;;;;5042432;28;20526;-83
2023/07/13 02:24:54;;;;;;;4.93;0.70;;;17.50;99.90;;;;;;5041184;28;20527;-81
2023/07/13 02:27:21;;;;;;;2.97;0.77;;;17.50;99.90;;;;;;5038692;28;20498;-80
2023/07/13 02:29:51;;;;;;;4.57;0.77;;;17.50;99.90;;;;;;5042058;28;20474;-81
2023/07/13 02:32:18;;;;;;;1.87;0.80;;;17.50;99.90;;;;;;5038074;28;20469;-80
2023/07/13 02:34:45;;;;;;;2.63;1.40;;;17.50;99.90;;;;;;5040954;27;20469;-79
2023/07/13 02:37:12;;;;;;;3.17;1.43;;;17.60;99.90;;;;;;5041577;28;20547;-80
2023/07/13 02:39:39;;;;;;;5.30;0.80;;;17.60;99.90;;;;;;5039855;27;20615;-82
2023/07/13 02:42:07;;;;;;;1.07;0.77;;;17.60;99.90;;;;;;5040949;28;21010;-79
2023/07/13 02:44:35;;;;;;;1.30;1.20;;;17.70;99.90;;;;;;5039848;28;21136;-82
2023/07/13 02:47:03;;;;;;;1.53;0.80;;;17.70;99.90;;;;;;5032978;28;20495;-80
2023/07/13 02:49:30;;;;;;;1.37;0.90;;;17.60;99.90;;;;;;5036953;28;20554;-81
2023/07/13 02:51:57;;;;;;;0.60;0.60;;;17.70;99.90;;;;;;5042043;28;20525;-80
2023/07/13 02:54:24;;;;;;;2.80;1.00;;;17.60;99.90;;;;;;5043022;28;20481;-81
2023/07/13 02:56:51;;;;;;;1.17;0.80;;;17.50;99.90;;;;;;5041317;28;20446;-83
2023/07/13 02:59:18;;;;;;;4.00;1.00;;;17.50;99.90;;;;;;5042386;28;20574;-81
2023/07/13 03:01:45;;;;;;;0.87;0.80;;;17.50;99.90;;;;;;5042943;28;21726;-79
2023/07/13 03:04:13;;;;;;;1.67;0.70;;;17.50;99.90;;;;;;5039428;28;20518;-83
2023/07/13 03:06:40;;;;;;;0.93;0.80;;;17.60;99.90;;;;;;5041469;28;20457;-81
2023/07/13 03:09:08;;;;;;;2.93;0.73;;;17.60;99.90;;;;;;5043987;27;20471;-81
2023/07/13 03:11:35;;;;;;;1.37;0.80;;;17.60;99.90;;;;;;5040631;28;20470;-81
2023/07/13 03:14:01;;;;;;;2.07;1.10;;;17.50;99.90;;;;;;5039044;28;20478;-83
2023/07/13 03:16:28;;;;;;;2.00;0.90;;;17.60;99.90;;;;;;5035606;28;20943;-81
2023/07/13 03:18:55;;;;;;;1.83;1.57;;;17.60;99.90;;;;;;5039620;28;20519;-85
2023/07/13 03:21:24;;;;;;;3.80;0.70;;;17.60;99.90;;;;;;5040117;28;20489;-81
2023/07/13 03:23:51;;;;;;;2.07;0.90;;;17.60;99.90;;;;;;5042038;28;20966;-80
2023/07/13 03:26:20;;;;;;;2.53;1.17;;;17.70;99.90;;;;;;5040031;28;20521;-82
2023/07/13 03:28:47;;;;;;;3.30;0.90;;;17.70;99.90;;;;;;5036487;28;20456;-80
2023/07/13 03:31:17;;;;;;;3.00;1.20;;;17.70;99.90;;;;;;5039051;27;21023;-82
2023/07/13 03:33:44;;;;;;;3.30;0.97;;;17.70;99.90;;;;;;5036024;28;20501;-81
2023/07/13 03:36:16;;;;;;;4.07;1.00;;;17.60;99.90;;;;;;5044082;28;20858;-83
2023/07/13 03:38:44;;;;;;;1.23;0.97;;;17.60;99.90;;;;;;5044396;28;20479;-80
2023/07/13 03:41:11;;;;;;;1.20;1.07;;;17.70;99.90;;;;;;5051325;27;20496;-80
2023/07/13 03:43:38;;;;;;;7.90;2.07;;;17.70;99.90;;;;;;5044600;28;20466;-81
2023/07/13 03:46:05;;;;;;;3.20;1.20;;;17.70;99.90;;;;;;5043477;28;20540;-81
2023/07/13 03:48:32;;;;;;;1.90;1.20;;;17.70;99.90;;;;;;5040436;28;20504;-80
2023/07/13 03:50:59;;;;;;;0.87;0.80;;;17.70;99.90;;;;;;5043542;28;20489;-83
2023/07/13 03:53:26;;;;;;;5.60;1.43;;;17.70;99.90;;;;;;5043667;28;20456;-81
2023/07/13 03:55:54;;;;;;;4.20;1.77;;;17.70;99.90;;;;;;5039832;28;20467;-81
2023/07/13 03:58:28;;;;;;;4.33;1.27;;;17.80;99.90;;;;;;5045057;28;20909;-80
2023/07/13 04:00:56;;;;;;;2.23;1.47;;;17.90;99.90;;;;;;5037311;28;20530;-80
2023/07/13 04:03:23;;;;;;;5.57;1.30;;;17.90;99.90;;;;;;5040570;28;20488;-83
2023/07/13 04:05:50;;;;;;;4.40;1.53;;;17.90;99.90;;;;;;5041601;28;22027;-80
2023/07/13 04:08:17;;;;;;;6.30;1.80;;;17.90;99.90;;;;;;5039536;27;20453;-81
2023/07/13 04:10:44;;;;;;;1.97;1.87;;;18.00;99.90;;;;;;5041654;28;21091;-81
2023/07/13 04:13:13;;;;;;;1.57;1.47;;;18.00;99.90;;;;;;5042322;28;20557;-81
2023/07/13 04:15:40;;;;;;;1.97;1.47;;;18.00;99.90;;;;;;5042610;28;20476;-81
2023/07/13 04:18:07;;;;;;;5.30;1.97;;;18.10;99.90;;;;;;5043802;28;20522;-81
2023/07/13 04:20:35;;;;;;;4.60;1.00;;;18.10;99.90;;;;;;5036282;27;20492;-84
2023/07/13 04:23:01;;;;;;;1.93;1.17;;;18.20;99.90;;;;;;5042461;28;21049;-80
2023/07/13 04:25:27;;;;;;;1.33;1.23;;;18.20;99.90;;;;;;5039734;28;20484;-81
2023/07/13 04:27:55;;;;;;;1.17;1.10;;;18.20;99.90;;;;;;5042737;28;20479;-79
2023/07/13 04:30:23;;;;;;;2.23;1.53;;;18.20;99.90;;;;;;5040780;28;21163;-80
2023/07/13 04:32:52;;;;;;;4.40;2.20;;;18.10;99.90;;;;;;5036715;28;20558;-82
2023/07/13 04:35:20;;;;;;;3.33;2.00;;;18.20;99.90;;;;;;5047663;27;21066;-80
2023/07/13 04:37:49;;;;;;;1.83;1.10;;;18.20;99.90;;;;;;5042771;28;20469;-79
2023/07/13 04:40:17;;;;;;;1.93;1.03;;;18.10;99.90;;;;;;5046673;27;20508;-80
2023/07/13 04:42:44;;;;;;;2.10;1.10;;;18.20;99.90;;;;;;5036679;28;20493;-82
2023/07/13 04:45:12;;;;;;;2.53;1.50;;;18.10;99.90;;;;;;5045240;28;20485;-79
2023/07/13 04:47:41;;;;;;;3.47;1.83;;;18.20;99.90;;;;;;5045050;28;20546;-81
2023/07/13 04:50:10;;;;;;;2.90;1.57;;;18.30;99.90;;;;;;5044147;28;20537;-80
2023/07/13 04:52:37;;;;;;;2.00;1.07;;;18.30;99.90;;;;;;5042630;28;20452;-80
2023/07/13 04:55:06;;;;;;;1.47;1.27;;;18.40;99.90;;;;;;5042632;27;20499;-80
2023/07/13 04:57:33;;;;;;;1.63;1.20;;;18.40;99.90;;;;;;5045387;28;20493;-77
2023/07/13 05:00:00;;;;;;;1.00;0.90;;;18.40;99.90;;;;;;5038058;28;20487;-78
2023/07/13 05:02:28;;;;;;;4.33;1.43;;;18.50;99.90;;;;;;5044698;28;20479;-77
2023/07/13 05:04:56;;;;;;;6.90;2.37;;;18.60;99.90;;;;;;5044738;28;20519;-78
2023/07/13 05:07:23;;;;;;;2.73;1.60;;;18.40;99.90;;;;;;5042946;27;20457;-78
2023/07/13 05:09:50;;;;;;;11.40;3.13;;;18.50;99.90;;;;;;5058010;27;20537;-78
2023/07/13 05:12:17;;;;;;;1.33;0.93;;;18.60;99.90;;;;;;5042987;28;20481;-80
2023/07/13 05:14:44;;;;;;;1.90;1.17;;;18.80;99.90;;;;;;5042438;28;20967;-79
2023/07/13 05:17:11;;;;;;;2.30;2.10;;;18.90;99.90;;;;;;5036817;27;20461;-78
2023/07/13 05:19:38;;;;;;;1.23;1.13;;;18.80;99.90;;;;;;5044983;28;20513;-80
2023/07/13 05:22:08;;;;;;;1.27;1.03;;;18.90;99.90;;;;;;5041522;28;20491;-79
2023/07/13 05:24:35;;;;;;;3.23;1.10;;;18.80;99.90;;;;;;5045043;28;21106;-79
2023/07/13 05:27:02;;;;;;;1.13;1.03;;;18.70;99.90;;;;;;5035377;28;20553;-80
2023/07/13 05:29:29;;;;;;;3.37;1.30;;;18.70;99.90;;;;;;5040623;28;20479;-78
2023/07/13 05:31:56;;;;;;;1.80;1.37;;;18.70;99.90;;;;;;5042664;28;20535;-78
2023/07/13 05:34:23;;;;;;;1.07;0.97;;;18.70;99.90;;;;;;5041224;28;20898;-80
2023/07/13 05:36:50;;;;;;;2.23;1.23;;;18.60;99.90;;;;;;5039797;28;21261;-80
2023/07/13 05:39:19;;;;;;;1.63;1.10;;;18.70;99.90;;;;;;5047807;27;20913;-78
2023/07/13 05:41:46;;;;;;;1.13;0.90;;;18.60;99.90;;;;;;5044623;27;20481;-80
2023/07/13 05:44:13;;;;;;;1.23;1.03;;;18.70;99.90;;;;;;5041656;28;20534;-80
2023/07/13 05:46:40;;;;;;;1.27;0.70;;;18.70;99.90;;;;;;5034969;28;20505;-80
2023/07/13 05:49:07;;;;;;;2.80;1.33;;;18.90;99.90;;;;;;5040130;28;20546;-78
2023/07/13 05:51:33;;;;;;;1.20;1.10;;;18.90;99.90;;;;;;5037622;28;20507;-78
2023/07/13 05:54:00;;;;;;;1.07;0.70;;;19.00;99.90;;;;;;5042199;28;20565;-77
2023/07/13 05:56:29;;;;;;;2.40;0.70;;;18.90;99.90;;;;;;5044567;28;20529;-78
2023/07/13 05:58:57;;;;;;;2.50;1.60;;;18.80;99.90;;;;;;5043574;28;20577;-79
2023/07/13 06:01:24;;;;;;;2.60;1.07;;;18.80;99.90;;;;;;5042192;28;21074;-77
2023/07/13 06:03:51;;;;;;;1.47;1.00;;;18.70;99.90;;;;;;5043280;27;20473;-80
2023/07/13 06:06:18;;;;;;;2.60;2.40;;;18.80;99.90;;;;;;5039007;28;20968;-78
2023/07/13 06:08:45;;;;;;;1.07;1.07;;;18.90;99.90;;;;;;5040533;27;20507;-77
2023/07/13 06:11:16;;;;;;;1.67;1.47;;;18.90;99.90;;;;;;5043005;28;20445;-78
2023/07/13 06:13:45;;;;;;;3.53;1.80;;;18.90;99.90;;;;;;5039941;28;20549;-79
2023/07/13 06:16:13;;;;;;;3.07;1.30;;;18.90;99.90;;;;;;5036795;28;20481;-78
2023/07/13 06:18:41;;;;;;;3.00;1.03;;;19.00;99.90;;;;;;5038488;28;20464;-78
2023/07/13 06:21:09;;;;;;;1.03;0.90;;;19.10;99.90;;;;;;5040450;28;20445;-81
2023/07/13 06:23:36;;;;;;;2.87;1.07;;;19.00;99.90;;;;;;5041584;28;20472;-81
2023/07/13 06:26:04;;;;;;;2.40;1.23;;;19.10;99.90;;;;;;5039221;28;20506;-79
2023/07/13 06:28:32;;;;;;;3.53;1.00;;;19.40;99.90;;;;;;5042414;28;20477;-79
2023/07/13 06:31:01;;;;;;;9.00;2.07;;;19.50;99.90;;;;;;5038998;28;20467;-79
2023/07/13 06:33:28;;;;;;;2.00;1.50;;;19.50;99.90;;;;;;5041401;28;21004;-80
2023/07/13 06:35:55;;;;;;;1.63;1.20;;;19.60;99.90;;;;;;5042366;28;20461;-78
2023/07/13 06:38:22;;;;;;;3.10;1.20;;;19.50;99.90;;;;;;5038469;27;20461;-78
2023/07/13 06:40:49;;;;;;;3.23;1.40;;;19.50;99.90;;;;;;5038959;27;20546;-78
2023/07/13 06:43:16;;;;;;;2.00;1.37;;;19.60;99.90;;;;;;5039775;28;20477;-78
2023/07/13 06:45:47;;;;;;;2.83;1.10;;;19.40;99.90;;;;;;5042678;28;20481;-78
2023/07/13 06:48:15;;;;;;;3.43;0.77;;;19.20;99.90;;;;;;5036147;28;20492;-78
2023/07/13 06:50:43;;;;;;;3.53;1.07;;;19.20;99.90;;;;;;5038723;27;20465;-81
2023/07/13 06:53:10;;;;;;;2.90;1.10;;;19.40;99.90;;;;;;5032964;28;21009;-79
2023/07/13 06:55:36;;;;;;;3.77;1.77;;;19.50;99.90;;;;;;5038901;28;20557;-78
2023/07/13 06:58:03;;;;;;;3.70;1.07;;;19.50;99.90;;;;;;5033012;27;20500;-81
2023/07/13 07:00:30;;;;;;;10.80;1.30;;;19.50;99.90;;;;;;5033847;27;20513;-78
2023/07/13 07:02:58;;;;;;;1.50;1.20;;;19.60;99.90;;;;;;5038883;28;20825;-78
2023/07/13 07:05:26;;;;;;;2.63;1.80;;;19.70;99.90;;;;;;5037844;28;20525;-78
2023/07/13 07:07:55;;;;;;;2.40;2.13;;;19.80;99.90;;;;;;5038283;27;20808;-78
2023/07/13 07:10:22;;;;;;;3.27;1.20;;;20.00;99.90;;;;;;5044822;27;20521;-81
2023/07/13 07:12:49;;;;;;;3.70;1.27;;;20.00;99.90;;;;;;5043059;28;20493;-78
2023/07/13 07:15:17;;;;;;;1.13;0.90;;;19.90;99.90;;;;;;5044114;28;20577;-77
2023/07/13 07:17:44;;;;;;;1.20;0.90;;;19.70;99.90;;;;;;5045564;28;20477;-80
2023/07/13 07:20:12;;;;;;;1.60;1.40;;;19.50;99.90;;;;;;5044486;28;20918;-78
2023/07/13 07:22:40;;;;;;;2.03;1.73;;;19.50;99.90;;;;;;5041734;28;20477;-78
2023/07/13 07:25:08;;;;;;;1.83;0.87;;;19.70;99.90;;;;;;5037362;28;20561;-78
2023/07/13 07:27:35;;;;;;;1.20;1.10;;;20.10;99.90;;;;;;5038747;27;20469;-78
2023/07/13 07:30:02;;;;;;;1.70;1.10;;;20.30;99.90;;;;;;5043000;28;20477;-78
2023/07/13 07:32:30;;;;;;;1.33;1.10;;;20.20;99.90;;;;;;5041350;28;20526;-79
2023/07/13 07:34:57;;;;;;;1.97;1.27;;;20.30;99.90;;;;;;5041424;28;20445;-78
2023/07/13 07:37:24;;;;;;;1.27;1.17;;;20.40;99.90;;;;;;5041847;28;20550;-82
2023/07/13 07:39:53;;;;;;;3.07;1.50;;;20.50;99.90;;;;;;5049627;27;20573;-79
2023/07/13 07:42:20;;;;;;;2.90;1.30;;;20.50;99.90;;;;;;5040423;28;20492;-78
2023/07/13 07:44:47;;;;;;;2.77;0.90;;;20.30;99.90;;;;;;5044345;28;20603;-77
2023/07/13 07:47:15;;;;;;;1.87;1.37;;;20.30;99.90;;;;;;5041031;28;20489;-78
2023/07/13 07:49:42;;;;;;;3.00;0.80;;;20.50;99.90;;;;;;5036936;27;20550;-80
2023/07/13 07:52:09;;;;;;;4.43;1.40;;;20.70;99.90;;;;;;5044920;28;20546;-80
2023/07/13 07:54:36;;;;;;;1.13;1.07;;;20.90;99.90;;;;;;5041854;28;20465;-79
2023/07/13 07:57:05;;;;;;;0.90;0.73;;;21.30;99.90;;;;;;5045383;27;20449;-81
2023/07/13 07:59:31;;;;;;;1.40;1.30;;;21.80;99.90;;;;;;5042110;28;20488;-78
2023/07/13 08:01:58;;;;;;;1.57;1.03;;;22.10;99.90;;;;;;5045135;28;20470;-78
2023/07/13 08:04:25;;;;;;;2.77;1.40;;;21.90;99.90;;;;;;5041215;28;20454;-77
2023/07/13 08:06:52;;;;;;;1.47;1.10;;;22.00;99.90;;;;;;5045018;28;20445;-78
2023/07/13 08:09:19;;;;;;;3.93;1.73;;;21.90;99.90;;;;;;5052677;27;20461;-79
2023/07/13 08:11:46;;;;;;;1.43;1.10;;;21.90;99.90;;;;;;5044888;28;20457;-78
2023/07/13 08:14:16;;;;;;;1.27;1.17;;;22.10;99.90;;;;;;5045537;28;20449;-78
2023/07/13 08:16:43;;;;;;;1.30;1.20;;;22.00;99.90;;;;;;5044761;28;20873;-78
2023/07/13 08:19:11;;;;;;;1.57;1.47;;;22.30;99.90;;;;;;5043025;27;20488;-79
2023/07/13 08:21:38;;;;;;;1.17;1.07;;;22.80;99.90;;;;;;5040598;28;21042;-79
2023/07/13 08:24:05;;;;;;;2.73;1.13;;;23.00;99.90;;;;;;5044020;28;20505;-78
2023/07/13 08:26:32;;;;;;;1.60;1.50;;;22.80;99.90;;;;;;5044509;28;20525;-81
2023/07/13 08:28:59;;;;;;;3.50;1.47;;;22.70;99.90;;;;;;5041273;28;20503;-78
2023/07/13 08:31:27;;;;;;;2.20;1.23;;;22.70;99.90;;;;;;5044059;28;20481;-78
2023/07/13 08:33:54;;;;;;;1.93;1.60;;;22.40;99.90;;;;;;5037025;28;20489;-78
2023/07/13 08:36:21;;;;;;;2.23;1.20;;;22.70;99.90;;;;;;5040589;28;21290;-78
2023/07/13 08:38:48;;;;;;;3.00;1.33;;;22.60;99.90;;;;;;5044052;28;20953;-79
2023/07/13 08:41:17;;;;;;;1.33;1.20;;;22.60;99.90;;;;;;5048638;27;20577;-81
2023/07/13 08:43:49;;;;;;;2.00;1.90;;;22.60;99.90;;;;;;5045297;28;20547;-78
2023/07/13 08:46:19;;;;;;;5.30;2.10;;;22.50;99.90;;;;;;5043085;28;20450;-78
2023/07/13 08:48:52;;;;;;;1.30;1.20;;;22.70;99.90;;;;;;5038696;28;20554;-80
2023/07/13 08:51:30;;;;;;;1.10;1.00;;;22.50;99.90;;;;;;5038427;27;20473;-79
2023/07/13 08:54:01;;;;;;;1.30;1.20;;;22.50;99.90;;;;;;5042180;28;21171;-78
2023/07/13 08:56:30;;;;;;;1.40;1.30;;;22.40;99.90;;;;;;5040089;28;20493;-78
2023/07/13 08:59:00;;;;;;;1.83;1.40;;;22.20;99.90;;;;;;5057078;27;20556;-78
2023/07/13 09:01:33;;;;;;;2.07;1.30;;;22.30;99.90;;;;;;5038715;28;20489;-79
2023/07/13 09:04:08;;;;;;;1.30;1.20;;;22.20;99.90;;;;;;5043302;28;20470;-77
2023/07/13 09:06:45;;;;;;;1.37;1.20;;;22.20;99.90;;;;;;5038370;28;20505;-80
2023/07/13 09:09:22;;;;;;;1.87;1.70;;;22.30;99.90;;;;;;5044758;27;20472;-77
2023/07/13 09:12:00;;;;;;;4.20;1.40;;;22.10;99.90;;;;;;5035920;28;20529;-78
2023/07/13 09:14:43;;;;;;;3.97;1.80;;;22.10;99.90;;;;;;5042110;28;20461;-78
2023/07/13 09:17:17;;;;;;;1.57;1.27;;;22.00;99.90;;;;;;5043321;28;21345;-78
2023/07/13 09:19:50;;;;;;;1.67;1.40;;;21.70;99.90;;;;;;5040346;28;20565;-78
2023/07/13 09:22:21;;;;;;;1.37;1.27;;;21.50;99.90;;;;;;5040201;28;21004;-80
2023/07/13 09:25:00;;;;;;;1.67;1.20;;;21.50;99.90;;;;;;5043244;28;20454;-78
2023/07/13 09:27:32;;;;;;;3.50;0.90;;;21.40;99.90;;;;;;5041418;28;20768;-77
2023/07/13 09:30:10;;;;;;;2.70;1.67;;;21.50;99.90;;;;;;5042539;28;21020;-80
2023/07/13 09:32:40;;;;;;;2.53;1.20;;;21.60;99.90;;;;;;5039745;28;20489;-78
2023/07/13 09:35:12;;;;;;;1.70;1.50;;;21.80;99.90;;;;;;5040705;28;20952;-78
2023/07/13 09:37:41;;;;;;;1.80;1.57;;;21.90;99.90;;;;;;5042229;28;20916;-79
2023/07/13 09:40:15;;;;;;;1.83;1.73;;;22.00;99.90;;;;;;5040986;28;20573;-80
2023/07/13 09:42:43;;;;;;;1.30;1.20;;;21.90;99.90;;;;;;5037295;28;20556;-81
2023/07/13 09:45:10;;;;;;;2.80;1.70;;;21.90;99.90;;;;;;5039223;28;20526;-76
2023/07/13 09:47:40;;;;;;;1.50;1.40;;;22.00;99.90;;;;;;5038986;28;20521;-78
2023/07/13 09:50:16;;;;;;;1.57;1.10;;;22.30;99.90;;;;;;5040973;28;20500;-82
2023/07/13 09:52:45;;;;;;;2.80;2.13;;;22.50;99.90;;;;;;5041128;28;20472;-78
2023/07/13 09:55:27;;;;;;;1.70;1.60;;;22.60;99.90;;;;;;5038720;28;21077;-79
2023/07/13 09:57:56;;;;;;;1.93;1.77;;;22.60;99.90;;;;;;5037609;28;20446;-78
2023/07/13 10:00:25;;;;;;;1.47;1.10;;;22.60;99.90;;;;;;5032019;28;20486;-77
2023/07/13 10:03:01;;;;;;;2.50;1.60;;;22.60;99.90;;;;;;5035872;28;20473;-78
2023/07/13 10:05:37;;;;;;;2.50;1.20;;;22.50;99.90;;;;;;5039853;28;20468;-80
2023/07/13 10:08:07;;;;;;;2.17;1.30;;;22.50;99.90;;;;;;5038463;28;20457;-78
2023/07/13 10:10:36;;;;;;;1.03;0.93;;;22.50;99.90;;;;;;5041751;28;21147;-78
2023/07/13 10:13:05;;;;;;;2.17;1.07;;;22.50;99.90;;;;;;5039552;28;20457;-78
2023/07/13 10:15:33;;;;;;;1.13;1.03;;;22.50;99.90;;;;;;5038503;28;20449;-79
2023/07/13 10:18:01;;;;;;;2.20;0.80;;;22.40;99.90;;;;;;5038584;28;21065;-78
2023/07/13 10:20:29;;;;;;;1.93;1.20;;;22.50;99.90;;;;;;5042086;28;20565;-78
2023/07/13 10:23:00;;;;;;;1.60;1.50;;;22.60;99.90;;;;;;5037122;28;20493;-78
2023/07/13 10:25:31;;;;;;;1.00;0.90;;;22.70;99.90;;;;;;5041384;28;20461;-78
2023/07/13 10:28:05;;;;;;;3.07;1.57;;;22.60;99.90;;;;;;5036678;28;20487;-78
2023/07/13 10:30:36;;;;;;;1.43;1.00;;;22.70;99.90;;;;;;5042193;28;21078;-78
2023/07/13 10:33:09;;;;;;;1.20;1.10;;;22.60;99.90;;;;;;5036248;28;20503;-80
2023/07/13 10:35:40;;;;;;;7.73;1.53;;;22.80;99.90;;;;;;5040095;28;20465;-78
2023/07/13 10:38:11;;;;;;;0.90;0.70;;;23.20;99.90;;;;;;5040181;28;20465;-81
2023/07/13 10:40:41;;;;;;;1.10;1.00;;;23.10;99.90;;;;;;5062046;27;20516;-78
2023/07/13 10:43:14;;;;;;;1.37;1.00;;;23.30;99.90;;;;;;5041328;28;20462;-80
2023/07/13 10:45:42;;;;;;;1.33;1.20;;;23.30;99.90;;;;;;5041850;28;20438;-80
2023/07/13 10:48:13;;;;;;;1.40;1.10;;;23.10;99.90;;;;;;5040018;28;20478;-79
2023/07/13 10:50:44;;;;;;;3.20;1.13;;;23.20;99.90;;;;;;5042838;28;20476;-81
2023/07/13 10:53:21;;;;;;;1.10;0.97;;;23.10;99.90;;;;;;5039273;28;20532;-78
2023/07/13 10:56:01;;;;;;;0.80;0.80;;;22.80;99.90;;;;;;5034948;28;20469;-78
2023/07/13 10:58:34;;;;;;;4.93;0.93;;;23.00;99.90;;;;;;5039939;28;20453;-81
2023/07/13 11:01:08;;;;;;;1.07;0.97;;;22.80;99.90;;;;;;5040800;28;20513;-78
2023/07/13 11:03:36;;;;;;;2.30;1.27;;;22.60;99.90;;;;;;5040109;28;20447;-78
2023/07/13 11:06:12;;;;;;;3.07;1.00;;;22.30;99.90;;;;;;5030995;28;20498;-78
2023/07/13 11:08:53;;;;;;;1.63;1.00;;;22.10;99.90;;;;;;5044751;27;20486;-78
2023/07/13 11:11:39;;;;;;;1.10;1.00;;;22.10;99.90;;;;;;5039677;28;20469;-78
2023/07/13 11:14:26;;;;;;;1.10;0.80;;;22.00;99.90;;;;;;5041361;28;20452;-78
2023/07/13 11:16:53;;;;;;;3.03;0.90;;;21.90;99.90;;;;;;5037884;28;21171;-78
2023/07/13 11:19:41;;;;;;;1.70;0.83;;;21.80;99.90;;;;;;5041884;28;20445;-77
2023/07/13 11:22:16;;;;;;;1.13;0.77;;;21.90;99.90;;;;;;5036901;28;20523;-78
2023/07/13 11:24:57;;;;;;;0.97;0.83;;;22.20;99.90;;;;;;5041379;28;20502;-78
2023/07/13 11:27:37;;;;;;;1.53;0.70;;;22.60;99.90;;;;;;5035971;28;20462;-77
2023/07/13 11:30:36;;;;;;;1.03;0.70;;;22.60;99.90;;;;;;5039410;28;20449;-77
2023/07/13 11:33:12;;;;;;;1.30;1.00;;;22.80;99.90;;;;;;5043588;28;20507;-77
2023/07/13 11:35:46;;;;;;;1.00;0.63;;;22.80;99.90;;;;;;5040630;27;20509;-75
2023/07/13 11:38:22;;;;;;;2.07;0.80;;;22.90;99.90;;;;;;5038559;28;20485;-74
2023/07/13 11:40:52;;;;;;;4.63;0.87;;;22.60;97.80;;;;;;5041940;27;20589;-78
2023/07/13 11:43:19;;;;;;;0.80;0.80;;;22.40;97.90;;;;;;5038677;28;20497;-76
2023/07/13 11:45:46;;;;;;;1.63;0.90;;;22.70;97.70;;;;;;5040691;28;20510;-76
2023/07/13 11:48:25;;;;;;;0.73;0.60;;;23.10;96.80;;;;;;5038883;28;20538;-75
2023/07/13 11:51:02;;;;;;;1.00;0.80;;;23.40;96.40;;;;;;5038180;27;20517;-76
2023/07/13 11:53:38;;;;;;;0.70;0.50;;;23.80;94.70;;;;;;5036216;28;20441;-78
2023/07/13 11:56:06;;;;;;;0.97;0.87;;;23.80;93.60;;;;;;5035054;28;20479;-76
2023/07/13 11:58:34;;;;;;;1.53;0.80;;;24.10;93.70;;;;;;5041692;28;20890;-78
2023/07/13 12:01:04;;;;;;;1.03;0.57;;;24.70;93.00;;;;;;5040454;28;20587;-75
2023/07/13 12:03:33;;;;;;;16.10;2.90;;;24.70;90.20;;;;;;5041438;28;20455;-76
2023/07/13 12:06:02;;;;;;;0.60;0.60;;;24.70;90.90;;;;;;5037231;28;20990;-76
2023/07/13 12:08:31;;;;;;;1.90;0.60;;;24.80;91.20;;;;;;5056813;27;20432;-76
2023/07/13 12:11:05;;;;;;;1.47;0.80;;;24.90;90.20;;;;;;5044668;28;20995;-80
2023/07/13 12:13:37;;;;;;;0.97;0.80;;;24.60;90.50;;;;;;5041298;28;20455;-80
2023/07/13 12:16:12;;;;;;;0.80;0.73;;;24.40;91.30;;;;;;5039118;28;20552;-78
2023/07/13 12:18:39;;;;;;;0.73;0.73;;;24.20;92.20;;;;;;5042534;27;20487;-80
2023/07/13 12:21:13;;;;;;;0.70;0.70;;;24.20;92.50;;;;;;5042796;28;20502;-76
2023/07/13 12:23:45;;;;;;;0.90;0.60;;;24.10;92.20;;;;;;5044505;28;20509;-76
2023/07/13 12:26:13;;;;;;;2.73;0.80;;;23.80;92.70;;;;;;5043696;28;20498;-80
2023/07/13 12:28:45;;;;;;;1.73;0.90;;;23.40;93.40;;;;;;5044432;28;20472;-75
2023/07/13 12:31:32;;;;;;;0.80;0.73;;;23.40;93.00;;;;;;5041685;28;20478;-79
2023/07/13 12:34:01;;;;;;;0.80;0.70;;;23.10;93.90;;;;;;5041458;28;20462;-77
2023/07/13 12:36:33;;;;;;;0.70;0.70;;;23.00;94.70;;;;;;5043363;28;20928;-78
2023/07/13 12:39:13;;;;;;;0.70;0.60;;;22.80;95.60;;;;;;5038530;28;20465;-77
2023/07/13 12:41:40;;;;;;;3.80;0.67;;;22.50;96.10;;;;;;5039525;28;20554;-75
2023/07/13 12:44:12;;;;;;;1.30;0.80;;;22.20;97.20;;;;;;5043757;28;20856;-77
2023/07/13 12:46:39;;;;;;;0.60;0.60;;;22.00;96.60;;;;;;5037028;28;20822;-79
2023/07/13 12:49:08;;;;;;;1.67;0.60;;;22.10;97.20;;;;;;5041244;28;20465;-77
2023/07/13 12:51:35;;;;;;;3.37;1.30;;;22.30;98.20;;;;;;5043516;28;20482;-78
2023/07/13 12:54:16;;;;;;;0.70;0.60;;;22.40;97.20;;;;;;5041924;28;20445;-78
2023/07/13 12:56:44;;;;;;;2.70;0.60;;;22.40;97.00;;;;;;5038333;28;20493;-80